sensor_id;sensor_type;location;lat;lon;timestamp;P1;durP1;ratioP1;P2;durP2;ratioP2
80297;SDS011;69599;52.622;9.230;2023-12-20T00:02:22;11.00;;;2.75;;
80297;SDS011;69599;52.622;9.230;2023-12-20T00:04:48;8.27;;;2.15;;
80297;SDS011;69599;52.622;9.230;2023-12-20T00:07:13;6.63;;;1.45;;
80297;SDS011;69599;52.622;9.230;2023-12-20T00:09:39;7.25;;;2.38;;
80297;SDS011;69599;52.622;9.230;2023-12-20T00:12:04;6.88;;;1.75;;
80297;SDS011;69599;52.622;9.230;2023-12-20T00:14:30;7.15;;;1.70;;
80297;SDS011;69599;52.622;9.230;2023-12-20T00:16:55;7.32;;;1.80;;
80297;SDS011;69599;52.622;9.230;2023-12-20T00:19:21;6.93;;;1.90;;
80297;SDS011;69599;52.622;9.230;2023-12-20T00:21:46;4.43;;;1.52;;
80297;SDS011;69599;52.622;9.230;2023-12-20T00:24:11;13.95;;;1.92;;
80297;SDS011;69599;52.622;9.230;2023-12-20T00:26:37;7.10;;;1.95;;
80297;SDS011;69599;52.622;9.230;2023-12-20T00:29:02;8.43;;;1.55;;
80297;SDS011;69599;52.622;9.230;2023-12-20T00:31:27;4.70;;;1.48;;
80297;SDS011;69599;52.622;9.230;2023-12-20T00:33:53;3.58;;;1.55;;
80297;SDS011;69599;52.622;9.230;2023-12-20T00:36:18;6.20;;;1.45;;
80297;SDS011;69599;52.622;9.230;2023-12-20T00:38:44;6.20;;;1.35;;
80297;SDS011;69599;52.622;9.230;2023-12-20T00:41:10;7.30;;;1.45;;
80297;SDS011;69599;52.622;9.230;2023-12-20T00:43:35;4.47;;;1.23;;
80297;SDS011;69599;52.622;9.230;2023-12-20T00:46:00;9.70;;;2.47;;
80297;SDS011;69599;52.622;9.230;2023-12-20T00:48:26;6.90;;;2.22;;
80297;SDS011;69599;52.622;9.230;2023-12-20T00:50:56;7.80;;;1.55;;
80297;SDS011;69599;52.622;9.230;2023-12-20T00:53:22;6.57;;;1.70;;
80297;SDS011;69599;52.622;9.230;2023-12-20T00:55:47;7.82;;;1.45;;
80297;SDS011;69599;52.622;9.230;2023-12-20T00:58:13;8.77;;;2.05;;
80297;SDS011;69599;52.622;9.230;2023-12-20T01:00:40;9.25;;;2.03;;
80297;SDS011;69599;52.622;9.230;2023-12-20T01:03:07;7.30;;;2.42;;
80297;SDS011;69599;52.622;9.230;2023-12-20T01:05:32;7.43;;;1.83;;
80297;SDS011;69599;52.622;9.230;2023-12-20T01:07:57;14.45;;;2.78;;
80297;SDS011;69599;52.622;9.230;2023-12-20T01:10:23;7.72;;;1.85;;
80297;SDS011;69599;52.622;9.230;2023-12-20T01:12:48;5.55;;;2.00;;
80297;SDS011;69599;52.622;9.230;2023-12-20T01:15:14;7.97;;;1.60;;
80297;SDS011;69599;52.622;9.230;2023-12-20T01:17:39;3.72;;;0.93;;
80297;SDS011;69599;52.622;9.230;2023-12-20T01:20:05;9.30;;;1.73;;
80297;SDS011;69599;52.622;9.230;2023-12-20T01:22:31;5.40;;;1.50;;
80297;SDS011;69599;52.622;9.230;2023-12-20T01:24:56;6.70;;;1.88;;
80297;SDS011;69599;52.622;9.230;2023-12-20T01:27:22;4.85;;;1.50;;
80297;SDS011;69599;52.622;9.230;2023-12-20T01:29:47;9.00;;;2.13;;
80297;SDS011;69599;52.622;9.230;2023-12-20T01:32:12;10.77;;;1.58;;
80297;SDS011;69599;52.622;9.230;2023-12-20T01:34:38;12.93;;;3.05;;
80297;SDS011;69599;52.622;9.230;2023-12-20T01:37:03;6.93;;;1.80;;
80297;SDS011;69599;52.622;9.230;2023-12-20T01:39:29;8.65;;;1.75;;
80297;SDS011;69599;52.622;9.230;2023-12-20T01:41:54;8.38;;;1.85;;
80297;SDS011;69599;52.622;9.230;2023-12-20T01:44:19;7.35;;;2.17;;
80297;SDS011;69599;52.622;9.230;2023-12-20T01:46:45;8.35;;;1.98;;
80297;SDS011;69599;52.622;9.230;2023-12-20T01:49:11;12.13;;;2.42;;
80297;SDS011;69599;52.622;9.230;2023-12-20T01:51:37;8.68;;;2.25;;
80297;SDS011;69599;52.622;9.230;2023-12-20T01:54:02;10.45;;;2.10;;
80297;SDS011;69599;52.622;9.230;2023-12-20T01:56:28;11.20;;;2.35;;
80297;SDS011;69599;52.622;9.230;2023-12-20T01:58:54;4.88;;;1.58;;
80297;SDS011;69599;52.622;9.230;2023-12-20T02:01:19;7.35;;;2.10;;
80297;SDS011;69599;52.622;9.230;2023-12-20T02:03:45;6.85;;;1.90;;
80297;SDS011;69599;52.622;9.230;2023-12-20T02:06:11;7.78;;;2.05;;
80297;SDS011;69599;52.622;9.230;2023-12-20T02:08:36;6.38;;;1.70;;
80297;SDS011;69599;52.622;9.230;2023-12-20T02:11:01;7.20;;;1.52;;
80297;SDS011;69599;52.622;9.230;2023-12-20T02:13:27;7.13;;;2.05;;
80297;SDS011;69599;52.622;9.230;2023-12-20T02:15:53;11.73;;;2.03;;
80297;SDS011;69599;52.622;9.230;2023-12-20T02:18:19;4.07;;;1.63;;
80297;SDS011;69599;52.622;9.230;2023-12-20T02:20:45;10.88;;;1.73;;
80297;SDS011;69599;52.622;9.230;2023-12-20T02:23:10;7.45;;;1.70;;
80297;SDS011;69599;52.622;9.230;2023-12-20T02:25:35;6.47;;;1.63;;
80297;SDS011;69599;52.622;9.230;2023-12-20T02:28:01;7.65;;;1.73;;
80297;SDS011;69599;52.622;9.230;2023-12-20T02:30:27;8.73;;;1.80;;
80297;SDS011;69599;52.622;9.230;2023-12-20T02:32:52;5.32;;;1.80;;
80297;SDS011;69599;52.622;9.230;2023-12-20T02:35:18;5.38;;;1.35;;
80297;SDS011;69599;52.622;9.230;2023-12-20T02:37:44;5.93;;;1.60;;
80297;SDS011;69599;52.622;9.230;2023-12-20T02:40:09;7.70;;;2.40;;
80297;SDS011;69599;52.622;9.230;2023-12-20T02:42:35;7.20;;;1.38;;
80297;SDS011;69599;52.622;9.230;2023-12-20T02:45:00;5.13;;;1.30;;
80297;SDS011;69599;52.622;9.230;2023-12-20T02:47:26;7.70;;;1.70;;
80297;SDS011;69599;52.622;9.230;2023-12-20T02:49:51;9.93;;;2.10;;
80297;SDS011;69599;52.622;9.230;2023-12-20T02:52:18;16.67;;;2.72;;
80297;SDS011;69599;52.622;9.230;2023-12-20T02:54:43;7.22;;;2.03;;
80297;SDS011;69599;52.622;9.230;2023-12-20T02:57:08;8.07;;;1.70;;
80297;SDS011;69599;52.622;9.230;2023-12-20T02:59:34;5.85;;;1.92;;
80297;SDS011;69599;52.622;9.230;2023-12-20T03:01:59;6.35;;;1.80;;
80297;SDS011;69599;52.622;9.230;2023-12-20T03:04:24;9.02;;;2.95;;
80297;SDS011;69599;52.622;9.230;2023-12-20T03:06:50;9.43;;;2.17;;
80297;SDS011;69599;52.622;9.230;2023-12-20T03:09:16;4.03;;;1.60;;
80297;SDS011;69599;52.622;9.230;2023-12-20T03:11:41;7.72;;;2.17;;
80297;SDS011;69599;52.622;9.230;2023-12-20T03:14:06;4.93;;;1.85;;
80297;SDS011;69599;52.622;9.230;2023-12-20T03:16:32;6.25;;;1.85;;
80297;SDS011;69599;52.622;9.230;2023-12-20T03:18:58;6.35;;;1.75;;
80297;SDS011;69599;52.622;9.230;2023-12-20T03:21:23;5.22;;;1.85;;
80297;SDS011;69599;52.622;9.230;2023-12-20T03:23:50;8.73;;;2.17;;
80297;SDS011;69599;52.622;9.230;2023-12-20T03:26:16;8.82;;;1.73;;
80297;SDS011;69599;52.622;9.230;2023-12-20T03:28:41;9.85;;;2.30;;
80297;SDS011;69599;52.622;9.230;2023-12-20T03:31:06;5.63;;;1.77;;
80297;SDS011;69599;52.622;9.230;2023-12-20T03:33:32;8.75;;;2.25;;
80297;SDS011;69599;52.622;9.230;2023-12-20T03:35:57;8.15;;;2.35;;
80297;SDS011;69599;52.622;9.230;2023-12-20T03:38:23;10.02;;;2.22;;
80297;SDS011;69599;52.622;9.230;2023-12-20T03:40:51;11.07;;;2.05;;
80297;SDS011;69599;52.622;9.230;2023-12-20T03:43:16;7.82;;;2.28;;
80297;SDS011;69599;52.622;9.230;2023-12-20T03:45:42;15.20;;;2.55;;
80297;SDS011;69599;52.622;9.230;2023-12-20T03:48:08;12.45;;;2.65;;
80297;SDS011;69599;52.622;9.230;2023-12-20T03:50:33;6.43;;;2.30;;
80297;SDS011;69599;52.622;9.230;2023-12-20T03:52:59;17.08;;;2.90;;
80297;SDS011;69599;52.622;9.230;2023-12-20T03:55:24;8.48;;;2.38;;
80297;SDS011;69599;52.622;9.230;2023-12-20T03:57:50;7.10;;;2.88;;
80297;SDS011;69599;52.622;9.230;2023-12-20T04:00:15;11.38;;;2.83;;
80297;SDS011;69599;52.622;9.230;2023-12-20T04:02:41;6.43;;;2.47;;
80297;SDS011;69599;52.622;9.230;2023-12-20T04:05:07;10.95;;;3.78;;
80297;SDS011;69599;52.622;9.230;2023-12-20T04:07:33;6.03;;;1.90;;
80297;SDS011;69599;52.622;9.230;2023-12-20T04:09:59;9.75;;;2.92;;
80297;SDS011;69599;52.622;9.230;2023-12-20T04:12:24;8.13;;;3.08;;
80297;SDS011;69599;52.622;9.230;2023-12-20T04:14:50;10.52;;;3.38;;
80297;SDS011;69599;52.622;9.230;2023-12-20T04:17:15;8.00;;;2.72;;
80297;SDS011;69599;52.622;9.230;2023-12-20T04:19:41;11.00;;;2.72;;
80297;SDS011;69599;52.622;9.230;2023-12-20T04:22:07;9.63;;;2.50;;
80297;SDS011;69599;52.622;9.230;2023-12-20T04:24:32;5.78;;;2.28;;
80297;SDS011;69599;52.622;9.230;2023-12-20T04:26:58;12.63;;;2.72;;
80297;SDS011;69599;52.622;9.230;2023-12-20T04:29:23;10.75;;;3.58;;
80297;SDS011;69599;52.622;9.230;2023-12-20T04:31:48;12.20;;;3.10;;
80297;SDS011;69599;52.622;9.230;2023-12-20T04:34:16;8.52;;;2.22;;
80297;SDS011;69599;52.622;9.230;2023-12-20T04:36:41;9.60;;;2.25;;
80297;SDS011;69599;52.622;9.230;2023-12-20T04:39:07;7.97;;;2.97;;
80297;SDS011;69599;52.622;9.230;2023-12-20T04:41:32;4.63;;;2.40;;
80297;SDS011;69599;52.622;9.230;2023-12-20T04:43:58;12.05;;;3.50;;
80297;SDS011;69599;52.622;9.230;2023-12-20T04:46:23;9.57;;;2.92;;
80297;SDS011;69599;52.622;9.230;2023-12-20T04:48:49;9.25;;;3.08;;
80297;SDS011;69599;52.622;9.230;2023-12-20T04:51:14;8.23;;;2.65;;
80297;SDS011;69599;52.622;9.230;2023-12-20T04:53:40;11.13;;;2.75;;
80297;SDS011;69599;52.622;9.230;2023-12-20T04:56:05;10.65;;;2.53;;
80297;SDS011;69599;52.622;9.230;2023-12-20T04:58:31;8.80;;;3.75;;
80297;SDS011;69599;52.622;9.230;2023-12-20T05:00:56;10.73;;;2.75;;
80297;SDS011;69599;52.622;9.230;2023-12-20T05:03:22;8.82;;;2.80;;
80297;SDS011;69599;52.622;9.230;2023-12-20T05:05:47;7.93;;;2.58;;
80297;SDS011;69599;52.622;9.230;2023-12-20T05:08:13;13.52;;;4.13;;
80297;SDS011;69599;52.622;9.230;2023-12-20T05:10:38;9.32;;;2.90;;
80297;SDS011;69599;52.622;9.230;2023-12-20T05:13:05;9.30;;;2.80;;
80297;SDS011;69599;52.622;9.230;2023-12-20T05:15:30;8.20;;;2.42;;
80297;SDS011;69599;52.622;9.230;2023-12-20T05:17:56;5.95;;;2.58;;
80297;SDS011;69599;52.622;9.230;2023-12-20T05:20:21;7.55;;;2.35;;
80297;SDS011;69599;52.622;9.230;2023-12-20T05:22:46;10.05;;;2.42;;
80297;SDS011;69599;52.622;9.230;2023-12-20T05:25:13;11.82;;;3.22;;
80297;SDS011;69599;52.622;9.230;2023-12-20T05:27:38;12.43;;;3.60;;
80297;SDS011;69599;52.622;9.230;2023-12-20T05:30:04;11.75;;;3.22;;
80297;SDS011;69599;52.622;9.230;2023-12-20T05:32:29;10.77;;;2.65;;
80297;SDS011;69599;52.622;9.230;2023-12-20T05:34:56;8.63;;;3.38;;
80297;SDS011;69599;52.622;9.230;2023-12-20T05:37:22;10.15;;;2.92;;
80297;SDS011;69599;52.622;9.230;2023-12-20T05:39:47;8.32;;;2.67;;
80297;SDS011;69599;52.622;9.230;2023-12-20T05:42:13;12.45;;;3.50;;
80297;SDS011;69599;52.622;9.230;2023-12-20T05:44:38;12.00;;;3.38;;
80297;SDS011;69599;52.622;9.230;2023-12-20T05:47:04;8.27;;;3.00;;
80297;SDS011;69599;52.622;9.230;2023-12-20T05:49:29;11.38;;;3.05;;
80297;SDS011;69599;52.622;9.230;2023-12-20T05:51:54;13.95;;;3.00;;
80297;SDS011;69599;52.622;9.230;2023-12-20T05:54:20;8.20;;;2.85;;
80297;SDS011;69599;52.622;9.230;2023-12-20T05:56:46;14.60;;;3.28;;
80297;SDS011;69599;52.622;9.230;2023-12-20T05:59:11;11.75;;;2.90;;
80297;SDS011;69599;52.622;9.230;2023-12-20T06:01:37;12.07;;;3.00;;
80297;SDS011;69599;52.622;9.230;2023-12-20T06:04:02;12.13;;;2.70;;
80297;SDS011;69599;52.622;9.230;2023-12-20T06:06:28;7.30;;;3.10;;
80297;SDS011;69599;52.622;9.230;2023-12-20T06:08:53;6.80;;;3.97;;
80297;SDS011;69599;52.622;9.230;2023-12-20T06:11:19;11.10;;;2.83;;
80297;SDS011;69599;52.622;9.230;2023-12-20T06:13:44;7.05;;;3.13;;
80297;SDS011;69599;52.622;9.230;2023-12-20T06:16:10;11.77;;;3.10;;
80297;SDS011;69599;52.622;9.230;2023-12-20T06:18:35;9.57;;;3.05;;
80297;SDS011;69599;52.622;9.230;2023-12-20T06:21:02;12.57;;;2.92;;
80297;SDS011;69599;52.622;9.230;2023-12-20T06:23:27;13.18;;;2.90;;
80297;SDS011;69599;52.622;9.230;2023-12-20T06:25:53;13.85;;;3.28;;
80297;SDS011;69599;52.622;9.230;2023-12-20T06:28:18;11.98;;;2.75;;
80297;SDS011;69599;52.622;9.230;2023-12-20T06:30:43;14.88;;;3.70;;
80297;SDS011;69599;52.622;9.230;2023-12-20T06:33:09;13.02;;;3.92;;
80297;SDS011;69599;52.622;9.230;2023-12-20T06:35:36;8.98;;;2.33;;
80297;SDS011;69599;52.622;9.230;2023-12-20T06:38:01;13.63;;;4.85;;
80297;SDS011;69599;52.622;9.230;2023-12-20T06:40:27;15.52;;;3.22;;
80297;SDS011;69599;52.622;9.230;2023-12-20T06:42:52;10.38;;;3.03;;
80297;SDS011;69599;52.622;9.230;2023-12-20T06:45:18;11.75;;;3.05;;
80297;SDS011;69599;52.622;9.230;2023-12-20T06:47:43;9.23;;;2.85;;
80297;SDS011;69599;52.622;9.230;2023-12-20T06:50:08;10.73;;;2.80;;
80297;SDS011;69599;52.622;9.230;2023-12-20T06:52:34;7.43;;;2.42;;
80297;SDS011;69599;52.622;9.230;2023-12-20T06:55:00;10.02;;;2.60;;
80297;SDS011;69599;52.622;9.230;2023-12-20T06:57:26;11.18;;;2.90;;
80297;SDS011;69599;52.622;9.230;2023-12-20T06:59:51;8.25;;;2.65;;
80297;SDS011;69599;52.622;9.230;2023-12-20T07:02:17;13.68;;;2.55;;
80297;SDS011;69599;52.622;9.230;2023-12-20T07:04:42;11.45;;;2.65;;
80297;SDS011;69599;52.622;9.230;2023-12-20T07:07:08;14.15;;;3.65;;
80297;SDS011;69599;52.622;9.230;2023-12-20T07:09:33;11.68;;;2.45;;
80297;SDS011;69599;52.622;9.230;2023-12-20T07:11:59;10.73;;;3.85;;
80297;SDS011;69599;52.622;9.230;2023-12-20T07:14:24;10.88;;;2.92;;
80297;SDS011;69599;52.622;9.230;2023-12-20T07:16:49;10.98;;;2.88;;
80297;SDS011;69599;52.622;9.230;2023-12-20T07:19:15;8.77;;;3.40;;
80297;SDS011;69599;52.622;9.230;2023-12-20T07:21:40;10.50;;;3.38;;
80297;SDS011;69599;52.622;9.230;2023-12-20T07:24:06;9.05;;;3.38;;
80297;SDS011;69599;52.622;9.230;2023-12-20T07:26:31;10.43;;;3.47;;
80297;SDS011;69599;52.622;9.230;2023-12-20T07:28:56;11.38;;;3.17;;
80297;SDS011;69599;52.622;9.230;2023-12-20T07:31:23;10.02;;;2.25;;
80297;SDS011;69599;52.622;9.230;2023-12-20T07:33:49;15.90;;;3.58;;
80297;SDS011;69599;52.622;9.230;2023-12-20T07:36:14;13.50;;;2.67;;
80297;SDS011;69599;52.622;9.230;2023-12-20T07:38:40;12.77;;;2.92;;
80297;SDS011;69599;52.622;9.230;2023-12-20T07:41:08;10.75;;;2.75;;
80297;SDS011;69599;52.622;9.230;2023-12-20T07:43:34;16.67;;;3.03;;
80297;SDS011;69599;52.622;9.230;2023-12-20T07:46:03;14.02;;;2.97;;
80297;SDS011;69599;52.622;9.230;2023-12-20T07:48:30;10.00;;;2.72;;
80297;SDS011;69599;52.622;9.230;2023-12-20T07:50:55;15.80;;;3.08;;
80297;SDS011;69599;52.622;9.230;2023-12-20T07:53:21;10.18;;;3.08;;
80297;SDS011;69599;52.622;9.230;2023-12-20T07:55:46;15.52;;;4.00;;
80297;SDS011;69599;52.622;9.230;2023-12-20T07:58:11;9.63;;;3.22;;
80297;SDS011;69599;52.622;9.230;2023-12-20T08:00:37;8.93;;;2.78;;
80297;SDS011;69599;52.622;9.230;2023-12-20T08:03:03;5.43;;;2.90;;
80297;SDS011;69599;52.622;9.230;2023-12-20T08:05:28;14.13;;;2.75;;
80297;SDS011;69599;52.622;9.230;2023-12-20T08:07:54;13.82;;;3.28;;
80297;SDS011;69599;52.622;9.230;2023-12-20T08:10:19;11.40;;;3.63;;
80297;SDS011;69599;52.622;9.230;2023-12-20T08:12:44;11.05;;;3.08;;
80297;SDS011;69599;52.622;9.230;2023-12-20T08:15:10;7.57;;;2.40;;
80297;SDS011;69599;52.622;9.230;2023-12-20T08:17:35;12.07;;;3.50;;
80297;SDS011;69599;52.622;9.230;2023-12-20T08:20:00;12.85;;;3.15;;
80297;SDS011;69599;52.622;9.230;2023-12-20T08:22:26;8.18;;;2.78;;
80297;SDS011;69599;52.622;9.230;2023-12-20T08:24:51;14.63;;;3.28;;
80297;SDS011;69599;52.622;9.230;2023-12-20T08:27:16;11.70;;;2.80;;
80297;SDS011;69599;52.622;9.230;2023-12-20T08:29:43;13.38;;;3.70;;
80297;SDS011;69599;52.622;9.230;2023-12-20T08:32:10;7.75;;;2.90;;
80297;SDS011;69599;52.622;9.230;2023-12-20T08:34:35;10.07;;;3.20;;
80297;SDS011;69599;52.622;9.230;2023-12-20T08:37:00;13.55;;;3.50;;
80297;SDS011;69599;52.622;9.230;2023-12-20T08:39:26;11.25;;;3.80;;
80297;SDS011;69599;52.622;9.230;2023-12-20T08:41:51;9.88;;;3.85;;
80297;SDS011;69599;52.622;9.230;2023-12-20T08:44:17;8.10;;;2.90;;
80297;SDS011;69599;52.622;9.230;2023-12-20T08:46:42;12.68;;;3.13;;
80297;SDS011;69599;52.622;9.230;2023-12-20T08:49:08;8.65;;;3.22;;
80297;SDS011;69599;52.622;9.230;2023-12-20T08:51:34;13.48;;;3.35;;
80297;SDS011;69599;52.622;9.230;2023-12-20T08:54:00;16.92;;;3.00;;
80297;SDS011;69599;52.622;9.230;2023-12-20T08:56:25;12.40;;;3.45;;
80297;SDS011;69599;52.622;9.230;2023-12-20T08:58:50;20.02;;;9.93;;
80297;SDS011;69599;52.622;9.230;2023-12-20T09:01:16;12.40;;;3.88;;
80297;SDS011;69599;52.622;9.230;2023-12-20T09:03:41;14.55;;;4.28;;
80297;SDS011;69599;52.622;9.230;2023-12-20T09:06:07;11.77;;;2.63;;
80297;SDS011;69599;52.622;9.230;2023-12-20T09:08:32;7.72;;;3.85;;
80297;SDS011;69599;52.622;9.230;2023-12-20T09:10:58;18.98;;;5.10;;
80297;SDS011;69599;52.622;9.230;2023-12-20T09:13:23;14.75;;;3.97;;
80297;SDS011;69599;52.622;9.230;2023-12-20T09:15:56;16.45;;;4.65;;
80297;SDS011;69599;52.622;9.230;2023-12-20T09:18:21;25.15;;;7.63;;
80297;SDS011;69599;52.622;9.230;2023-12-20T09:20:47;24.25;;;6.35;;
80297;SDS011;69599;52.622;9.230;2023-12-20T09:23:12;17.13;;;5.20;;
80297;SDS011;69599;52.622;9.230;2023-12-20T09:25:37;26.35;;;8.50;;
80297;SDS011;69599;52.622;9.230;2023-12-20T09:28:03;15.40;;;5.60;;
80297;SDS011;69599;52.622;9.230;2023-12-20T09:30:28;22.10;;;5.72;;
80297;SDS011;69599;52.622;9.230;2023-12-20T09:32:54;23.27;;;6.72;;
80297;SDS011;69599;52.622;9.230;2023-12-20T09:35:20;17.48;;;4.70;;
80297;SDS011;69599;52.622;9.230;2023-12-20T09:37:45;21.70;;;8.30;;
80297;SDS011;69599;52.622;9.230;2023-12-20T09:40:12;23.88;;;8.65;;
80297;SDS011;69599;52.622;9.230;2023-12-20T09:45:14;10.68;;;4.57;;
80297;SDS011;69599;52.622;9.230;2023-12-20T09:47:42;11.95;;;3.58;;
80297;SDS011;69599;52.622;9.230;2023-12-20T09:50:08;35.47;;;12.93;;
80297;SDS011;69599;52.622;9.230;2023-12-20T09:52:34;39.08;;;18.08;;
80297;SDS011;69599;52.622;9.230;2023-12-20T09:55:01;10.00;;;4.30;;
80297;SDS011;69599;52.622;9.230;2023-12-20T09:57:30;16.58;;;4.80;;
80297;SDS011;69599;52.622;9.230;2023-12-20T09:59:56;24.98;;;9.35;;
80297;SDS011;69599;52.622;9.230;2023-12-20T10:02:21;11.63;;;4.65;;
80297;SDS011;69599;52.622;9.230;2023-12-20T10:04:51;9.43;;;3.88;;
80297;SDS011;69599;52.622;9.230;2023-12-20T10:07:16;10.57;;;2.78;;
80297;SDS011;69599;52.622;9.230;2023-12-20T10:09:42;11.70;;;2.70;;
80297;SDS011;69599;52.622;9.230;2023-12-20T10:12:08;9.43;;;3.30;;
80297;SDS011;69599;52.622;9.230;2023-12-20T10:14:33;12.65;;;3.10;;
80297;SDS011;69599;52.622;9.230;2023-12-20T10:17:02;10.50;;;2.63;;
80297;SDS011;69599;52.622;9.230;2023-12-20T10:19:28;10.48;;;2.55;;
80297;SDS011;69599;52.622;9.230;2023-12-20T10:21:54;11.95;;;3.53;;
80297;SDS011;69599;52.622;9.230;2023-12-20T10:24:19;14.77;;;2.63;;
80297;SDS011;69599;52.622;9.230;2023-12-20T10:26:45;10.30;;;3.67;;
80297;SDS011;69599;52.622;9.230;2023-12-20T10:29:10;8.18;;;2.78;;
80297;SDS011;69599;52.622;9.230;2023-12-20T10:31:36;8.50;;;4.07;;
80297;SDS011;69599;52.622;9.230;2023-12-20T10:34:03;10.57;;;3.03;;
80297;SDS011;69599;52.622;9.230;2023-12-20T10:36:30;13.05;;;3.88;;
80297;SDS011;69599;52.622;9.230;2023-12-20T10:38:57;8.55;;;2.70;;
80297;SDS011;69599;52.622;9.230;2023-12-20T10:41:30;7.88;;;2.08;;
80297;SDS011;69599;52.622;9.230;2023-12-20T10:44:00;13.10;;;6.70;;
80297;SDS011;69599;52.622;9.230;2023-12-20T10:46:26;9.20;;;4.00;;
80297;SDS011;69599;52.622;9.230;2023-12-20T10:48:53;11.20;;;6.22;;
80297;SDS011;69599;52.622;9.230;2023-12-20T10:51:20;12.70;;;4.95;;
80297;SDS011;69599;52.622;9.230;2023-12-20T10:53:49;8.07;;;1.52;;
80297;SDS011;69599;52.622;9.230;2023-12-20T10:58:42;3.28;;;1.38;;
80297;SDS011;69599;52.622;9.230;2023-12-20T11:01:10;6.35;;;3.75;;
80297;SDS011;69599;52.622;9.230;2023-12-20T11:03:37;5.85;;;1.40;;
80297;SDS011;69599;52.622;9.230;2023-12-20T11:06:49;8.18;;;1.00;;
80297;SDS011;69599;52.622;9.230;2023-12-20T11:14:06;6.07;;;1.48;;
80297;SDS011;69599;52.622;9.230;2023-12-20T11:16:36;5.55;;;1.10;;
80297;SDS011;69599;52.622;9.230;2023-12-20T11:19:05;2.83;;;1.00;;
80297;SDS011;69599;52.622;9.230;2023-12-20T11:21:31;4.72;;;1.05;;
80297;SDS011;69599;52.622;9.230;2023-12-20T11:23:57;2.58;;;0.88;;
80297;SDS011;69599;52.622;9.230;2023-12-20T11:26:22;2.97;;;1.08;;
80297;SDS011;69599;52.622;9.230;2023-12-20T11:28:52;3.92;;;0.73;;
80297;SDS011;69599;52.622;9.230;2023-12-20T11:31:17;3.13;;;0.90;;
80297;SDS011;69599;52.622;9.230;2023-12-20T11:33:42;5.97;;;1.20;;
80297;SDS011;69599;52.622;9.230;2023-12-20T11:36:12;4.93;;;1.08;;
80297;SDS011;69599;52.622;9.230;2023-12-20T11:38:39;4.88;;;0.80;;
80297;SDS011;69599;52.622;9.230;2023-12-20T11:41:18;2.30;;;0.80;;
80297;SDS011;69599;52.622;9.230;2023-12-20T11:43:44;0.68;;;0.35;;
80297;SDS011;69599;52.622;9.230;2023-12-20T11:46:09;1.52;;;0.40;;
80297;SDS011;69599;52.622;9.230;2023-12-20T11:48:38;1.92;;;0.47;;
80297;SDS011;69599;52.622;9.230;2023-12-20T11:51:11;2.17;;;0.30;;
80297;SDS011;69599;52.622;9.230;2023-12-20T11:53:37;4.25;;;0.60;;
80297;SDS011;69599;52.622;9.230;2023-12-20T11:56:03;3.67;;;0.25;;
80297;SDS011;69599;52.622;9.230;2023-12-20T11:58:30;1.83;;;0.47;;
80297;SDS011;69599;52.622;9.230;2023-12-20T12:00:55;0.70;;;0.22;;
80297;SDS011;69599;52.622;9.230;2023-12-20T12:03:21;0.75;;;0.50;;
80297;SDS011;69599;52.622;9.230;2023-12-20T12:05:48;1.77;;;0.50;;
80297;SDS011;69599;52.622;9.230;2023-12-20T12:08:13;1.10;;;0.40;;
80297;SDS011;69599;52.622;9.230;2023-12-20T12:10:39;3.05;;;0.40;;
80297;SDS011;69599;52.622;9.230;2023-12-20T12:13:04;2.95;;;0.68;;
80297;SDS011;69599;52.622;9.230;2023-12-20T12:15:30;2.42;;;0.73;;
80297;SDS011;69599;52.622;9.230;2023-12-20T12:17:56;3.05;;;1.35;;
80297;SDS011;69599;52.622;9.230;2023-12-20T12:20:22;4.45;;;0.70;;
80297;SDS011;69599;52.622;9.230;2023-12-20T12:22:57;5.00;;;0.63;;
80297;SDS011;69599;52.622;9.230;2023-12-20T12:25:28;4.13;;;0.90;;
80297;SDS011;69599;52.622;9.230;2023-12-20T12:27:54;2.83;;;0.57;;
80297;SDS011;69599;52.622;9.230;2023-12-20T12:30:20;4.30;;;0.70;;
80297;SDS011;69599;52.622;9.230;2023-12-20T12:32:46;2.38;;;0.43;;
80297;SDS011;69599;52.622;9.230;2023-12-20T12:35:11;3.88;;;0.80;;
80297;SDS011;69599;52.622;9.230;2023-12-20T12:37:40;2.83;;;0.57;;
80297;SDS011;69599;52.622;9.230;2023-12-20T12:40:15;2.55;;;0.55;;
80297;SDS011;69599;52.622;9.230;2023-12-20T12:42:42;1.13;;;0.50;;
80297;SDS011;69599;52.622;9.230;2023-12-20T12:45:08;2.00;;;0.68;;
80297;SDS011;69599;52.622;9.230;2023-12-20T12:47:34;5.28;;;0.65;;
80297;SDS011;69599;52.622;9.230;2023-12-20T12:50:00;2.78;;;0.55;;
80297;SDS011;69599;52.622;9.230;2023-12-20T12:52:26;2.03;;;0.77;;
80297;SDS011;69599;52.622;9.230;2023-12-20T12:54:52;1.77;;;0.43;;
80297;SDS011;69599;52.622;9.230;2023-12-20T12:57:17;3.05;;;0.60;;
80297;SDS011;69599;52.622;9.230;2023-12-20T12:59:44;2.22;;;0.60;;
80297;SDS011;69599;52.622;9.230;2023-12-20T13:02:11;1.85;;;0.32;;
80297;SDS011;69599;52.622;9.230;2023-12-20T13:04:41;2.78;;;0.30;;
80297;SDS011;69599;52.622;9.230;2023-12-20T13:09:35;3.22;;;0.55;;
80297;SDS011;69599;52.622;9.230;2023-12-20T13:12:00;3.17;;;0.70;;
80297;SDS011;69599;52.622;9.230;2023-12-20T13:14:28;3.60;;;0.70;;
80297;SDS011;69599;52.622;9.230;2023-12-20T13:16:54;3.50;;;0.80;;
80297;SDS011;69599;52.622;9.230;2023-12-20T13:19:21;2.47;;;0.60;;
80297;SDS011;69599;52.622;9.230;2023-12-20T13:21:46;2.50;;;0.63;;
80297;SDS011;69599;52.622;9.230;2023-12-20T13:24:11;2.72;;;0.60;;
80297;SDS011;69599;52.622;9.230;2023-12-20T13:26:37;5.57;;;0.95;;
80297;SDS011;69599;52.622;9.230;2023-12-20T13:29:02;4.72;;;0.70;;
80297;SDS011;69599;52.622;9.230;2023-12-20T13:31:28;3.75;;;0.50;;
80297;SDS011;69599;52.622;9.230;2023-12-20T13:33:53;5.28;;;0.75;;
80297;SDS011;69599;52.622;9.230;2023-12-20T13:36:18;3.92;;;0.70;;
80297;SDS011;69599;52.622;9.230;2023-12-20T13:38:44;4.88;;;0.70;;
80297;SDS011;69599;52.622;9.230;2023-12-20T13:41:09;4.47;;;0.82;;
80297;SDS011;69599;52.622;9.230;2023-12-20T13:43:35;4.13;;;0.85;;
80297;SDS011;69599;52.622;9.230;2023-12-20T13:46:00;2.88;;;0.70;;
80297;SDS011;69599;52.622;9.230;2023-12-20T13:48:26;2.33;;;0.52;;
80297;SDS011;69599;52.622;9.230;2023-12-20T13:50:51;2.70;;;0.63;;
80297;SDS011;69599;52.622;9.230;2023-12-20T13:53:17;4.03;;;0.75;;
80297;SDS011;69599;52.622;9.230;2023-12-20T13:55:42;5.60;;;0.70;;
80297;SDS011;69599;52.622;9.230;2023-12-20T13:58:07;3.97;;;0.60;;
80297;SDS011;69599;52.622;9.230;2023-12-20T14:00:35;6.07;;;0.80;;
80297;SDS011;69599;52.622;9.230;2023-12-20T14:03:01;2.58;;;1.00;;
80297;SDS011;69599;52.622;9.230;2023-12-20T14:05:27;2.67;;;0.55;;
80297;SDS011;69599;52.622;9.230;2023-12-20T14:07:53;2.38;;;0.63;;
80297;SDS011;69599;52.622;9.230;2023-12-20T14:10:18;6.68;;;0.95;;
80297;SDS011;69599;52.622;9.230;2023-12-20T14:12:43;2.40;;;0.80;;
80297;SDS011;69599;52.622;9.230;2023-12-20T14:15:09;5.75;;;0.98;;
80297;SDS011;69599;52.622;9.230;2023-12-20T14:17:38;6.05;;;0.82;;
80297;SDS011;69599;52.622;9.230;2023-12-20T14:20:05;2.90;;;0.65;;
80297;SDS011;69599;52.622;9.230;2023-12-20T14:22:31;5.82;;;1.50;;
80297;SDS011;69599;52.622;9.230;2023-12-20T14:24:57;5.65;;;0.80;;
80297;SDS011;69599;52.622;9.230;2023-12-20T14:27:22;9.45;;;1.45;;
80297;SDS011;69599;52.622;9.230;2023-12-20T14:29:49;5.75;;;1.00;;
80297;SDS011;69599;52.622;9.230;2023-12-20T14:32:15;4.35;;;0.80;;
80297;SDS011;69599;52.622;9.230;2023-12-20T14:34:41;5.38;;;0.73;;
80297;SDS011;69599;52.622;9.230;2023-12-20T14:37:06;3.50;;;0.80;;
80297;SDS011;69599;52.622;9.230;2023-12-20T14:39:32;2.20;;;0.43;;
80297;SDS011;69599;52.622;9.230;2023-12-20T14:41:57;6.05;;;0.73;;
80297;SDS011;69599;52.622;9.230;2023-12-20T14:44:23;6.85;;;1.10;;
80297;SDS011;69599;52.622;9.230;2023-12-20T14:46:48;5.38;;;1.55;;
80297;SDS011;69599;52.622;9.230;2023-12-20T14:49:14;5.85;;;0.90;;